EDTY

Adolf Würth Airport

Schwäbisch Hall, Germany
TAF EDTY 210800Z 2109/2118 VRB02KT CAVOK BECMG 2109/2111 33006KT
Issued Valid From Valid To
Apr-21 @ 08:00 UTC
(2 hours ago)
Apr-21 @ 09:00 UTC
(39 minutes ago)
Apr-21 @ 18:00 UTC
(in 8 hours)
Apr-21 @ 09:00 to Apr-21 @ 18:00
TAF EDTY 210800Z 2109/2118 VRB02KT CAVOK
Wind Visibility Clouds Conditions
Variable at 2 knots 10,000+ meters
  • No significant clouds
Becoming Apr-21 @ 09:00 to Apr-21 @ 18:00
BECMG 2109/2111 33006KT
Wind Visibility Clouds Conditions
330° at 6 knots 10,000+ meters
  • No significant clouds
TAF EDTY 210800Z 2109/2118 VRB02KT CAVOK BECMG 2109/2111 33006KT
Issued Apr-21 @ 08:00 UTC
(2 hours ago)
Valid From Apr-21 @ 09:00 UTC
(39 minutes ago)
Valid To Apr-21 @ 18:00 UTC
(in 8 hours)
Apr-21 @ 09:00 - Apr-21 @ 18:00
Wind Visibility
Variable at 2 knots 10,000+ meters
Clouds
  • No significant clouds
Conditions
Becoming Apr-21 @ 09:00 - Apr-21 @ 18:00
Wind Visibility
330° at 6 knots 10,000+ meters
Clouds
  • No significant clouds
Conditions